createdAt,value
2022-12-18T00:02:21.050Z,16.92
2022-12-18T00:07:24.389Z,16.87
2022-12-18T00:12:29.893Z,16.85
2022-12-18T00:17:33.687Z,16.82
2022-12-18T00:22:37.204Z,16.82
2022-12-18T00:27:40.683Z,16.80
2022-12-18T00:32:44.042Z,16.78
2022-12-18T00:37:47.364Z,16.76
2022-12-18T00:42:50.823Z,16.72
2022-12-18T00:47:54.684Z,16.69
2022-12-18T00:52:58.551Z,16.66
2022-12-18T00:58:02.020Z,16.66
2022-12-18T01:03:06.764Z,16.66
2022-12-18T01:08:10.357Z,16.69
2022-12-18T01:13:13.686Z,16.74
2022-12-18T01:18:18.043Z,16.80
2022-12-18T01:23:21.660Z,16.84
2022-12-18T01:28:25.042Z,16.89
2022-12-18T01:33:29.617Z,16.85
2022-12-18T01:38:33.045Z,16.85
2022-12-18T01:43:48.318Z,16.81
2022-12-18T01:48:59.253Z,16.75
2022-12-18T01:54:04.092Z,16.75
2022-12-18T01:59:11.467Z,16.71
2022-12-18T02:04:27.863Z,16.80
2022-12-18T02:09:52.324Z,16.81
2022-12-18T02:15:01.832Z,16.78
2022-12-18T02:20:20.739Z,16.75
2022-12-18T02:25:42.713Z,16.75
2022-12-18T02:30:50.911Z,16.76
2022-12-18T02:35:56.760Z,16.73
2022-12-18T02:41:04.787Z,16.78
2022-12-18T02:46:35.004Z,16.80
2022-12-18T02:51:51.464Z,16.78
2022-12-18T02:57:04.580Z,16.81
2022-12-18T03:02:22.720Z,16.85
2022-12-18T03:07:39.622Z,16.85
2022-12-18T03:13:04.187Z,16.84
2022-12-18T03:18:21.340Z,16.86
2022-12-18T03:23:30.710Z,16.88
2022-12-18T03:28:40.391Z,16.91
2022-12-18T03:33:56.000Z,16.89
2022-12-18T03:39:06.916Z,16.93
2022-12-18T03:44:29.482Z,16.88
2022-12-18T03:49:57.643Z,16.88
2022-12-18T03:55:02.968Z,16.86
2022-12-18T04:00:14.705Z,16.84
2022-12-18T04:05:34.218Z,16.86
2022-12-18T04:10:38.693Z,16.86
2022-12-18T04:15:42.913Z,16.84
2022-12-18T04:20:50.798Z,16.81
2022-12-18T04:25:55.156Z,16.83
2022-12-18T04:31:13.201Z,16.83
2022-12-18T04:36:16.925Z,16.84
2022-12-18T04:41:22.715Z,16.84
2022-12-18T04:46:30.198Z,16.83
2022-12-18T04:51:33.577Z,16.89
2022-12-18T04:56:36.858Z,16.91
2022-12-18T05:01:40.391Z,16.85
2022-12-18T05:06:43.931Z,16.84
2022-12-18T05:11:47.167Z,16.84
2022-12-18T05:16:50.639Z,16.86
2022-12-18T05:21:54.701Z,16.88
2022-12-18T05:26:58.160Z,16.87
2022-12-18T05:32:01.633Z,16.91
2022-12-18T05:37:05.301Z,16.93
2022-12-18T05:42:08.692Z,17.00
2022-12-18T05:47:12.061Z,17.06
2022-12-18T05:52:16.604Z,17.14
2022-12-18T05:57:20.759Z,17.17
2022-12-18T06:02:24.202Z,17.24
2022-12-18T06:07:27.662Z,17.39
2022-12-18T06:12:30.913Z,17.41
2022-12-18T06:17:36.154Z,17.40
2022-12-18T06:22:39.604Z,17.48
2022-12-18T06:27:42.995Z,17.47
2022-12-18T06:32:50.485Z,17.58
2022-12-18T06:37:56.675Z,17.65
2022-12-18T06:43:00.008Z,17.71
2022-12-18T06:48:03.702Z,17.78
2022-12-18T06:53:07.280Z,17.86
2022-12-18T06:58:11.041Z,17.97
2022-12-18T07:03:15.401Z,18.05
2022-12-18T07:08:19.003Z,18.12
2022-12-18T07:13:22.476Z,18.19
2022-12-18T07:18:25.784Z,18.23
2022-12-18T07:23:30.030Z,18.34
2022-12-18T07:28:34.547Z,18.43
2022-12-18T07:33:38.115Z,18.49
2022-12-18T07:38:41.834Z,18.58
2022-12-18T07:43:45.608Z,18.64
2022-12-18T07:48:50.315Z,18.64
2022-12-18T07:53:59.326Z,18.72
2022-12-18T07:59:09.091Z,18.77
2022-12-18T08:04:13.590Z,18.82
2022-12-18T08:09:17.107Z,18.93
2022-12-18T08:14:20.397Z,18.99
2022-12-18T08:19:23.877Z,19.07
2022-12-18T08:24:27.243Z,19.14
2022-12-18T08:29:30.710Z,19.25
2022-12-18T08:34:34.391Z,19.29
2022-12-18T08:39:37.692Z,19.35
2022-12-18T08:44:41.072Z,19.41
2022-12-18T08:49:44.594Z,19.51
2022-12-18T08:54:47.993Z,19.54
2022-12-18T08:59:51.468Z,19.57
2022-12-18T09:04:57.696Z,19.69
2022-12-18T09:10:01.343Z,19.78
2022-12-18T09:15:06.536Z,19.87
2022-12-18T09:20:10.296Z,19.96
2022-12-18T09:25:13.569Z,20.01
2022-12-18T09:30:17.164Z,20.13
2022-12-18T09:35:20.950Z,20.22
2022-12-18T09:40:30.162Z,20.23
2022-12-18T09:45:44.861Z,20.25
2022-12-18T09:50:50.907Z,20.43
2022-12-18T09:55:54.310Z,20.56
2022-12-18T10:00:57.821Z,20.64
2022-12-18T10:06:22.468Z,20.74
2022-12-18T10:11:34.787Z,20.82
2022-12-18T10:16:44.804Z,20.85
2022-12-18T10:22:04.780Z,20.88
2022-12-18T10:27:16.428Z,20.93
2022-12-18T10:32:26.430Z,21.01
2022-12-18T10:37:31.345Z,21.04
2022-12-18T10:42:36.406Z,21.01
2022-12-18T10:47:50.979Z,21.04
2022-12-18T10:53:02.710Z,21.05
2022-12-18T10:58:26.940Z,21.07
2022-12-18T11:03:40.867Z,21.08
2022-12-18T11:09:02.059Z,21.09
2022-12-18T11:14:22.605Z,21.11
2022-12-18T11:19:38.085Z,21.16
2022-12-18T11:24:41.537Z,21.18
2022-12-18T11:29:46.879Z,21.18
2022-12-18T11:34:59.178Z,21.15
2022-12-18T11:40:12.930Z,21.15
2022-12-18T11:45:29.062Z,21.16
2022-12-18T11:50:38.206Z,21.20
2022-12-18T11:55:45.732Z,21.22
2022-12-18T12:01:10.988Z,21.28
2022-12-18T12:06:30.719Z,21.31
2022-12-18T12:11:47.818Z,21.33
2022-12-18T12:16:56.646Z,21.35
2022-12-18T12:22:19.594Z,21.35
2022-12-18T12:27:35.598Z,21.36
2022-12-18T12:33:13.383Z,21.33
2022-12-18T12:38:29.916Z,21.38
2022-12-18T12:49:16.506Z,21.41
2022-12-18T12:54:26.205Z,21.41
2022-12-18T12:59:32.470Z,21.41
2022-12-18T13:04:55.883Z,21.40
2022-12-18T13:10:27.499Z,21.37
2022-12-18T13:13:43.137Z,21.38
2022-12-18T13:15:46.762Z,21.37
2022-12-18T13:21:03.391Z,21.36
2022-12-18T13:26:07.404Z,21.29
2022-12-18T13:31:11.407Z,21.01
2022-12-18T13:36:24.375Z,20.81
2022-12-18T13:41:28.835Z,20.57
2022-12-18T13:46:51.225Z,20.38
2022-12-18T13:51:56.637Z,20.14
2022-12-18T13:57:01.134Z,19.91
2022-12-18T14:02:13.891Z,19.77
2022-12-18T14:07:20.662Z,19.59
2022-12-18T14:12:27.553Z,19.41
2022-12-18T14:17:33.096Z,19.24
2022-12-18T14:22:37.990Z,19.10
2022-12-18T14:27:53.176Z,18.97
2022-12-18T14:33:09.537Z,18.83
2022-12-18T14:38:19.380Z,18.70
2022-12-18T14:43:23.327Z,18.58
2022-12-18T14:48:42.165Z,18.50
2022-12-18T14:53:52.430Z,18.41
2022-12-18T14:59:01.142Z,18.33
2022-12-18T15:04:06.806Z,18.26
2022-12-18T15:09:27.078Z,18.20
2022-12-18T15:14:41.789Z,18.16
2022-12-18T15:19:48.216Z,18.13
2022-12-18T15:24:52.342Z,18.08
2022-12-18T15:30:08.188Z,18.04
2022-12-18T15:35:19.657Z,17.99
2022-12-18T15:40:25.101Z,17.93
2022-12-18T15:45:29.169Z,17.87
2022-12-18T15:50:32.595Z,17.85
2022-12-18T15:55:36.168Z,17.82
2022-12-18T16:00:41.755Z,17.77
2022-12-18T16:05:47.331Z,17.73
2022-12-18T16:10:51.433Z,17.71
2022-12-18T16:15:55.381Z,17.71
2022-12-18T16:21:00.005Z,17.66
2022-12-18T16:26:03.547Z,17.60
2022-12-18T16:31:09.156Z,17.55
2022-12-18T16:36:13.171Z,17.49
2022-12-18T16:41:21.419Z,17.43
2022-12-18T16:46:24.796Z,17.36
2022-12-18T16:51:29.124Z,17.38
2022-12-18T16:56:32.893Z,17.35
2022-12-18T17:01:36.551Z,17.37
2022-12-18T17:06:45.725Z,17.43
2022-12-18T17:11:49.325Z,17.48
2022-12-18T17:17:19.681Z,17.49
2022-12-18T17:22:17.855Z,17.49
2022-12-18T17:27:23.285Z,17.46
2022-12-18T17:32:27.323Z,17.45
2022-12-18T17:37:30.944Z,17.46
2022-12-18T17:42:34.843Z,17.51
2022-12-18T17:47:41.323Z,17.58
2022-12-18T17:52:47.548Z,17.58
2022-12-18T17:57:51.210Z,17.71
2022-12-18T18:02:54.974Z,17.74
2022-12-18T18:07:58.598Z,17.73
2022-12-18T18:13:01.930Z,17.71
2022-12-18T18:18:05.568Z,17.68
2022-12-18T18:23:08.919Z,17.64
2022-12-18T18:28:12.599Z,17.58
2022-12-18T18:33:16.166Z,17.56
2022-12-18T18:38:19.559Z,17.57
2022-12-18T18:43:23.011Z,17.62
2022-12-18T18:48:28.052Z,17.64
2022-12-18T18:53:41.817Z,17.68
2022-12-18T18:58:45.908Z,17.70
2022-12-18T19:03:49.924Z,17.67
2022-12-18T19:08:55.566Z,17.60
2022-12-18T19:14:00.700Z,17.55
2022-12-18T19:19:04.803Z,17.48
2022-12-18T19:24:10.200Z,17.44
2022-12-18T19:29:14.652Z,17.41
2022-12-18T19:34:18.311Z,17.39
2022-12-18T19:39:25.109Z,17.36
2022-12-18T19:44:28.940Z,17.34
2022-12-18T19:49:33.879Z,17.31
2022-12-18T19:54:40.954Z,17.25
2022-12-18T19:59:44.440Z,17.25
2022-12-18T20:04:49.422Z,17.22
2022-12-18T20:10:01.428Z,17.17
2022-12-18T20:15:08.505Z,17.11
2022-12-18T20:20:11.992Z,17.07
2022-12-18T20:25:17.084Z,17.07
2022-12-18T20:30:21.449Z,17.05
2022-12-18T20:35:24.928Z,17.08
2022-12-18T20:40:30.216Z,17.07
2022-12-18T20:45:33.771Z,17.06
2022-12-18T20:50:38.655Z,17.04
2022-12-18T20:55:44.923Z,17.02
2022-12-18T21:00:48.582Z,16.96
2022-12-18T21:05:52.178Z,16.89
2022-12-18T21:10:56.756Z,16.81
2022-12-18T21:16:02.109Z,16.76
2022-12-18T21:21:06.779Z,16.71
2022-12-18T21:26:23.434Z,16.71
2022-12-18T21:31:29.556Z,16.71
2022-12-18T21:36:34.720Z,16.73
2022-12-18T21:41:42.034Z,16.74
2022-12-18T21:46:51.512Z,16.68
2022-12-18T21:52:00.697Z,16.65
2022-12-18T21:57:08.466Z,16.64
2022-12-18T22:02:20.540Z,16.61
2022-12-18T22:07:24.251Z,16.58
2022-12-18T22:12:27.336Z,16.49
2022-12-18T22:17:30.635Z,16.40
2022-12-18T22:22:33.936Z,16.34
2022-12-18T22:27:37.768Z,16.32
2022-12-18T22:32:41.036Z,16.26
2022-12-18T22:37:44.477Z,16.19
2022-12-18T22:42:47.860Z,16.15
2022-12-18T22:47:54.073Z,16.15
2022-12-18T22:52:57.464Z,16.14
2022-12-18T22:58:00.816Z,16.11
2022-12-18T23:03:04.786Z,16.10
2022-12-18T23:08:10.743Z,16.09
2022-12-18T23:13:14.267Z,16.10
2022-12-18T23:18:17.794Z,16.05
2022-12-18T23:23:21.208Z,16.07
2022-12-18T23:28:25.071Z,16.09
2022-12-18T23:33:30.497Z,16.04
2022-12-18T23:38:34.538Z,16.04
2022-12-18T23:43:38.590Z,15.98
2022-12-18T23:48:42.052Z,15.93
2022-12-18T23:53:45.674Z,15.88
2022-12-18T23:58:49.554Z,15.84
